createdAt,value
2019-03-20T10:29:50.824Z,787.50
2019-03-20T10:30:51.773Z,748.12
2019-03-20T10:31:50.898Z,731.25
2019-03-20T10:32:50.394Z,748.12
2019-03-20T10:33:51.024Z,748.12
2019-03-20T10:34:50.963Z,630.00
2019-03-20T10:35:50.716Z,630.00
2019-03-20T10:36:50.562Z,579.38
2019-03-20T10:37:50.766Z,613.12
2019-03-20T10:38:50.541Z,624.38
2019-03-20T10:39:50.443Z,658.12
2019-03-20T10:40:50.303Z,663.75
2019-03-20T10:41:50.450Z,703.12
2019-03-20T10:42:50.147Z,658.12
2019-03-20T10:43:52.245Z,624.38
2019-03-20T10:44:49.914Z,675.00
2019-03-20T10:45:49.865Z,720.00
2019-03-20T10:46:50.169Z,703.12
2019-03-20T10:47:52.683Z,607.50
2019-03-20T10:48:49.765Z,675.00
2019-03-20T10:49:50.190Z,680.62
2019-03-20T10:50:49.974Z,675.00
2019-03-20T10:51:50.300Z,669.38
2019-03-20T10:52:49.983Z,663.75
2019-03-20T10:53:49.272Z,646.88
2019-03-20T10:54:52.441Z,652.50
2019-03-20T10:55:51.706Z,658.12
2019-03-20T10:56:52.859Z,669.38
2019-03-20T10:57:49.636Z,652.50
2019-03-20T10:58:49.002Z,646.88
2019-03-20T10:59:49.018Z,641.25
2019-03-20T11:00:49.175Z,585.00
2019-03-20T11:01:50.069Z,624.38
2019-03-20T11:02:48.644Z,630.00
2019-03-20T11:04:09.897Z,607.50
2019-03-20T11:04:48.478Z,624.38
2019-03-20T11:05:53.061Z,618.75
2019-03-20T11:06:48.411Z,607.50
2019-03-20T11:07:48.203Z,573.75
2019-03-20T11:08:51.260Z,568.12
2019-03-20T11:09:47.694Z,568.12
2019-03-20T11:10:48.537Z,562.50
2019-03-20T11:11:48.575Z,568.12
2019-03-20T11:12:47.757Z,551.25
2019-03-20T11:13:58.163Z,545.62
2019-03-20T11:14:47.690Z,562.50
2019-03-20T11:15:48.617Z,562.50
2019-03-20T11:16:47.338Z,562.50
2019-03-20T11:17:47.400Z,568.12
2019-03-20T11:18:48.535Z,573.75
2019-03-20T11:19:47.439Z,601.88
2019-03-20T11:20:50.620Z,596.25
2019-03-20T11:21:47.039Z,573.75
2019-03-20T11:22:46.958Z,573.75
2019-03-20T11:23:47.076Z,562.50
2019-03-20T11:24:46.520Z,573.75
2019-03-20T11:25:47.103Z,556.88
2019-03-20T11:26:47.378Z,568.12
2019-03-20T11:27:47.236Z,556.88
2019-03-20T11:28:46.773Z,562.50
2019-03-20T11:29:45.960Z,562.50
2019-03-20T11:30:46.055Z,545.62
2019-03-20T11:31:46.083Z,540.00
2019-03-20T11:32:49.669Z,534.38
2019-03-20T11:33:45.841Z,540.00
2019-03-20T11:35:59.895Z,540.00
2019-03-20T11:37:04.210Z,528.75
2019-03-20T11:38:02.542Z,523.12
2019-03-20T11:39:01.383Z,511.88
2019-03-20T11:40:01.226Z,511.88
2019-03-20T11:41:01.560Z,506.25
2019-03-20T11:42:04.322Z,506.25
2019-03-20T11:43:00.683Z,506.25
2019-03-20T11:44:01.624Z,506.25
2019-03-20T11:45:00.854Z,506.25
2019-03-20T11:46:00.397Z,500.62
2019-03-20T11:47:00.631Z,500.62
2019-03-20T11:48:03.802Z,495.00
2019-03-20T11:49:00.557Z,495.00
2019-03-20T11:50:00.481Z,489.38
2019-03-20T11:51:00.417Z,489.38
2019-03-20T11:52:00.430Z,483.75
2019-03-20T11:53:00.186Z,483.75
2019-03-20T11:54:09.658Z,495.00
2019-03-20T11:55:30.806Z,506.25
2019-03-20T11:56:03.714Z,506.25
2019-03-20T11:57:05.510Z,506.25
2019-03-20T11:57:59.986Z,500.62
2019-03-20T11:59:03.608Z,500.62
2019-03-20T12:00:01.415Z,489.38
2019-03-20T12:01:00.130Z,483.75
2019-03-20T12:01:59.904Z,478.12
2019-03-20T12:03:00.065Z,466.88
2019-03-20T12:04:00.121Z,466.88
2019-03-20T12:04:59.931Z,466.88
2019-03-20T12:05:59.940Z,466.88
2019-03-20T12:07:02.849Z,478.12
2019-03-20T12:08:00.381Z,478.12
2019-03-20T12:09:00.213Z,472.50
2019-03-20T12:09:59.911Z,472.50
2019-03-20T12:10:59.895Z,472.50
2019-03-20T12:11:59.913Z,466.88
2019-03-20T12:12:59.681Z,461.25
2019-03-20T12:14:03.182Z,455.62
2019-03-20T12:14:59.345Z,455.62
2019-03-20T12:16:00.395Z,450.00
2019-03-20T12:16:59.322Z,461.25
2019-03-20T12:17:59.322Z,444.38
2019-03-20T12:18:59.798Z,444.38
2019-03-20T12:19:59.382Z,444.38
2019-03-20T12:20:59.166Z,450.00
2019-03-20T12:22:02.230Z,450.00
2019-03-20T12:22:59.006Z,455.62
2019-03-20T12:23:58.620Z,478.12
2019-03-20T12:24:58.940Z,461.25
2019-03-20T12:25:58.720Z,478.12
2019-03-20T12:26:59.131Z,495.00
2019-03-20T12:27:59.637Z,466.88
2019-03-20T12:28:59.830Z,478.12
2019-03-20T12:29:58.956Z,466.88
2019-03-20T12:30:58.914Z,455.62
2019-03-20T12:31:58.916Z,461.25
2019-03-20T12:32:58.690Z,461.25
2019-03-20T12:33:58.541Z,461.25
2019-03-20T12:34:58.805Z,455.62
2019-03-20T12:35:58.398Z,455.62
2019-03-20T12:36:58.699Z,461.25
2019-03-20T12:37:59.103Z,427.50
2019-03-20T12:38:58.932Z,450.00
2019-03-20T12:39:58.445Z,466.88
2019-03-20T12:40:58.190Z,472.50
2019-03-20T12:41:58.200Z,472.50
2019-03-20T12:42:58.262Z,472.50
2019-03-20T12:43:58.282Z,466.88
2019-03-20T12:44:58.062Z,466.88
2019-03-20T12:46:01.438Z,466.88
2019-03-20T12:46:58.046Z,472.50
2019-03-20T12:47:58.505Z,472.50
2019-03-20T12:49:01.150Z,450.00
2019-03-20T12:49:57.691Z,433.12
2019-03-20T12:51:01.350Z,433.12
2019-03-20T12:51:57.849Z,410.62
2019-03-20T12:53:06.739Z,410.62
2019-03-20T12:54:07.234Z,450.00
2019-03-20T12:54:57.522Z,461.25
2019-03-20T12:55:57.474Z,450.00
2019-03-20T12:56:57.429Z,461.25
2019-03-20T12:58:00.922Z,455.62
2019-03-20T12:58:57.096Z,421.88
2019-03-20T13:00:00.551Z,416.25
2019-03-20T13:00:57.609Z,399.38
2019-03-20T13:02:00.438Z,427.50
2019-03-20T13:02:57.355Z,427.50
2019-03-20T13:03:57.165Z,421.88
2019-03-20T13:04:56.993Z,438.75
2019-03-20T13:06:00.101Z,438.75
2019-03-20T13:07:00.213Z,444.38
2019-03-20T13:08:05.737Z,433.12
2019-03-20T13:08:56.920Z,410.62
2019-03-20T13:10:03.412Z,382.50
2019-03-20T13:11:00.162Z,421.88
2019-03-20T13:11:56.497Z,421.88
2019-03-20T13:14:08.946Z,405.00
2019-03-20T13:15:09.479Z,399.38
2019-03-20T13:16:09.183Z,399.38
2019-03-20T13:17:09.327Z,427.50
2019-03-20T13:18:09.194Z,444.38
2019-03-20T13:19:09.095Z,444.38
2019-03-20T13:20:13.034Z,433.12
2019-03-20T13:21:09.381Z,427.50
2019-03-20T13:22:09.103Z,410.62
2019-03-20T13:23:08.644Z,421.88
2019-03-20T13:24:09.864Z,399.38
2019-03-20T13:25:08.814Z,421.88
2019-03-20T13:26:08.899Z,309.38
2019-03-20T13:27:09.014Z,303.75
2019-03-20T13:28:08.176Z,365.62
2019-03-20T13:29:08.835Z,320.62
2019-03-20T13:30:19.727Z,303.75
2019-03-20T13:31:08.271Z,303.75
2019-03-20T13:32:08.336Z,315.00
2019-03-20T13:33:08.287Z,309.38
2019-03-20T13:34:08.564Z,309.38
2019-03-20T13:35:09.669Z,303.75
2019-03-20T13:36:09.671Z,303.75
2019-03-20T13:37:12.152Z,303.75
2019-03-20T13:38:08.522Z,292.50
2019-03-20T13:39:08.580Z,286.88
2019-03-20T13:40:14.483Z,286.88
2019-03-20T13:41:08.113Z,281.25
2019-03-20T13:42:07.873Z,376.88
2019-03-20T13:43:08.074Z,348.75
2019-03-20T13:44:08.649Z,360.00
2019-03-20T13:45:09.503Z,315.00
2019-03-20T13:46:08.877Z,292.50
2019-03-20T13:47:08.294Z,286.88
2019-03-20T13:48:07.875Z,292.50
2019-03-20T13:49:07.768Z,371.25
2019-03-20T13:50:07.825Z,376.88
2019-03-20T13:51:08.143Z,303.75
2019-03-20T13:52:07.937Z,354.38
2019-03-20T13:53:08.086Z,270.00
2019-03-20T13:54:07.568Z,270.00
2019-03-20T13:55:07.678Z,270.00
2019-03-20T13:56:08.105Z,275.62
2019-03-20T13:57:07.499Z,270.00
2019-03-20T13:58:07.591Z,281.25
2019-03-20T13:59:07.474Z,275.62
2019-03-20T14:00:07.328Z,320.62
2019-03-20T14:01:07.454Z,275.62
2019-03-20T14:02:07.337Z,275.62
2019-03-20T14:03:07.313Z,264.38
2019-03-20T14:04:07.275Z,264.38
2019-03-20T14:05:07.218Z,264.38
2019-03-20T14:06:07.061Z,270.00
2019-03-20T14:07:07.103Z,270.00
2019-03-20T14:08:07.149Z,275.62
2019-03-20T14:09:07.155Z,348.75
2019-03-20T14:10:07.116Z,348.75
2019-03-20T14:11:08.010Z,354.38
2019-03-20T14:12:07.254Z,343.12
2019-03-20T14:13:07.018Z,292.50
2019-03-20T14:14:07.024Z,298.12
2019-03-20T14:15:07.414Z,275.62
2019-03-20T14:16:06.925Z,298.12
2019-03-20T14:17:08.316Z,315.00
2019-03-20T14:18:06.836Z,309.38
2019-03-20T14:19:07.091Z,303.75
2019-03-20T14:20:06.815Z,303.75
2019-03-20T14:21:07.143Z,298.12
2019-03-20T14:22:06.903Z,298.12
2019-03-20T14:23:07.418Z,320.62
2019-03-20T14:24:06.673Z,343.12
2019-03-20T14:25:06.722Z,315.00
2019-03-20T14:26:06.908Z,331.88
2019-03-20T14:27:06.892Z,315.00
2019-03-20T14:28:09.767Z,315.00
2019-03-20T14:29:06.727Z,281.25
2019-03-20T14:30:13.401Z,315.00
2019-03-20T14:31:06.828Z,315.00
2019-03-20T14:32:15.879Z,292.50
2019-03-20T14:33:06.767Z,309.38
2019-03-20T14:34:06.621Z,281.25
2019-03-20T14:35:06.491Z,281.25
2019-03-20T14:36:06.224Z,286.88
2019-03-20T14:37:06.252Z,264.38
2019-03-20T14:38:06.497Z,264.38
2019-03-20T14:39:06.225Z,264.38
2019-03-20T14:40:06.630Z,270.00
2019-03-20T14:41:06.205Z,264.38
2019-03-20T14:42:06.225Z,264.38
2019-03-20T14:43:09.625Z,264.38
2019-03-20T14:44:09.193Z,275.62
2019-03-20T14:45:06.165Z,292.50
2019-03-20T14:46:05.852Z,298.12
2019-03-20T14:47:06.339Z,298.12
2019-03-20T14:48:05.995Z,309.38
2019-03-20T14:49:06.318Z,303.75
2019-03-20T14:50:05.657Z,309.38
2019-03-20T14:51:05.557Z,303.75
2019-03-20T14:52:05.555Z,303.75
2019-03-20T14:53:05.653Z,303.75
2019-03-20T14:54:06.132Z,303.75
2019-03-20T14:55:05.995Z,309.38
2019-03-20T14:56:05.498Z,303.75
2019-03-20T14:57:05.335Z,309.38
2019-03-20T14:58:05.101Z,303.75
2019-03-20T14:59:05.129Z,303.75
2019-03-20T15:02:37.492Z,298.12
2019-03-20T15:03:38.108Z,281.25
2019-03-20T15:04:39.288Z,270.00
2019-03-20T15:05:38.322Z,258.75
2019-03-20T15:06:38.364Z,253.12
2019-03-20T15:07:38.268Z,247.50
2019-03-20T15:08:37.911Z,247.50
2019-03-20T15:09:38.107Z,247.50
2019-03-20T15:10:45.625Z,253.12
2019-03-20T15:11:37.810Z,247.50
2019-03-20T15:12:37.787Z,247.50
2019-03-20T15:13:38.011Z,241.88
2019-03-20T15:14:37.926Z,247.50
2019-03-20T15:15:37.936Z,241.88
2019-03-20T15:16:37.923Z,241.88
2019-03-20T15:17:37.853Z,241.88
2019-03-20T15:18:37.834Z,241.88
2019-03-20T15:19:37.918Z,236.25
2019-03-20T15:20:37.757Z,236.25
2019-03-20T15:21:37.747Z,241.88
2019-03-20T15:22:37.850Z,241.88
2019-03-20T15:23:37.856Z,241.88
2019-03-20T15:24:37.905Z,241.88
2019-03-20T15:25:37.871Z,236.25
2019-03-20T15:26:37.824Z,219.38
2019-03-20T15:27:37.852Z,219.38
2019-03-20T15:28:37.858Z,219.38
2019-03-20T15:29:37.772Z,219.38
2019-03-20T15:30:37.938Z,219.38
2019-03-20T15:31:37.742Z,219.38
2019-03-20T15:32:37.766Z,213.75
2019-03-20T15:33:37.657Z,213.75
2019-03-20T15:34:37.435Z,213.75
2019-03-20T15:35:37.517Z,208.12
2019-03-20T15:36:37.446Z,208.12
2019-03-20T15:37:37.444Z,202.50
2019-03-20T15:38:37.415Z,202.50
2019-03-20T15:39:37.395Z,208.12
2019-03-20T15:40:37.414Z,219.38
2019-03-20T15:41:39.071Z,236.25
2019-03-20T15:42:37.414Z,236.25
2019-03-20T15:43:37.416Z,236.25
2019-03-20T15:44:37.424Z,236.25
2019-03-20T15:45:37.444Z,230.62
2019-03-20T15:46:37.432Z,230.62
2019-03-20T15:47:37.489Z,225.00
2019-03-20T15:48:37.440Z,225.00
2019-03-20T15:49:37.400Z,225.00
2019-03-20T15:50:37.414Z,225.00
2019-03-20T15:51:37.393Z,219.38
2019-03-20T15:52:37.379Z,219.38
2019-03-20T15:53:37.358Z,219.38
2019-03-20T15:54:37.360Z,219.38
2019-03-20T15:55:37.362Z,219.38
2019-03-20T15:56:37.330Z,219.38
2019-03-20T15:57:37.323Z,213.75
2019-03-20T15:58:37.308Z,213.75
2019-03-20T15:59:37.269Z,208.12
2019-03-20T16:00:37.273Z,202.50
2019-03-20T16:01:37.248Z,196.88
2019-03-20T16:02:37.220Z,191.25
2019-03-20T16:03:37.172Z,191.25
2019-03-20T16:04:37.151Z,185.62
2019-03-20T16:05:37.221Z,185.62
2019-03-20T16:06:37.122Z,180.00
2019-03-20T16:07:37.095Z,180.00
2019-03-20T16:08:37.092Z,174.38
2019-03-20T16:09:37.114Z,174.38
2019-03-20T16:10:37.025Z,168.75
2019-03-20T16:11:37.000Z,163.12
2019-03-20T16:12:36.978Z,163.12
2019-03-20T16:13:36.965Z,157.50
2019-03-20T16:14:36.965Z,157.50
2019-03-20T16:15:36.941Z,151.88
2019-03-20T16:16:36.938Z,151.88
2019-03-20T16:17:36.893Z,151.88
2019-03-20T16:18:36.903Z,151.88
2019-03-20T16:19:36.872Z,146.25
2019-03-20T16:20:36.898Z,146.25
2019-03-20T16:21:37.372Z,146.25
2019-03-20T16:22:36.840Z,140.62
2019-03-20T16:23:36.817Z,135.00
2019-03-20T16:24:36.840Z,129.38
2019-03-20T16:25:36.812Z,129.38
2019-03-20T16:26:36.893Z,129.38
2019-03-20T16:27:36.808Z,123.75
2019-03-20T16:28:36.819Z,123.75
2019-03-20T16:29:36.818Z,118.12
2019-03-20T16:30:36.811Z,123.75
2019-03-20T16:31:36.804Z,118.12
2019-03-20T16:32:36.920Z,118.12
2019-03-20T16:33:36.868Z,112.50
2019-03-20T16:34:36.904Z,112.50
2019-03-20T16:35:36.866Z,112.50
2019-03-20T16:36:36.889Z,106.88
2019-03-20T16:37:37.596Z,106.88
2019-03-20T16:38:36.909Z,106.88
2019-03-20T16:39:36.920Z,106.88
2019-03-20T16:40:37.953Z,106.88
2019-03-20T16:41:37.002Z,106.88
2019-03-20T16:42:37.002Z,101.25
2019-03-20T16:43:36.995Z,101.25
2019-03-20T16:44:37.037Z,101.25
2019-03-20T16:45:37.522Z,95.62
2019-03-20T16:46:37.042Z,95.62
2019-03-20T16:47:37.070Z,95.62
2019-03-20T16:48:37.074Z,95.62
